Wetterdaten: Woche 28.12.15 - 03.01.16 (KW53)
Datum Zeit Temp. I. Temp. A. Feuchte I. Feuchte A. Luftdruck Regen Wind Richtung Sonnenschein UV Solar Taupunkt Windchill Windben
28.12.2015 00:00 23,2 C 3,7 C 52 % 93 % 1033,2 hPa 0,0 l/m 0,4 km/h (0 Bft) S-SO 0,00 h 0,0 UV-I 0 W/m 2,7 C 3,7 C 1,2 km/h (1 Bft)
28.12.2015 01:00 23,1 C 3,3 C 53 % 91 % 1033,1 hPa 0,0 l/m 0,0 km/h (0 Bft) N 0,00 h 0,0 UV-I 0 W/m 2,0 C 3,3 C 0,0 km/h (0 Bft)
28.12.2015 02:00 23,1 C 1,9 C 53 % 91 % 1032,9 hPa 0,0 l/m 0,0 km/h (0 Bft) N 0,00 h 0,0 UV-I 0 W/m 0,6 C 1,9 C 0,0 km/h (0 Bft)
28.12.2015 03:00 23,0 C 0,7 C 53 % 92 % 1032,8 hPa 0,0 l/m 0,0 km/h (0 Bft) N 0,00 h 0,0 UV-I 0 W/m -0,5 C 0,7 C 0,1 km/h (0 Bft)
28.12.2015 04:00 23,0 C -0,0 C 53 % 93 % 1032,8 hPa 0,0 l/m 0,0 km/h (0 Bft) N 0,00 h 0,0 UV-I 0 W/m -1,0 C -0,0 C 0,0 km/h (0 Bft)
28.12.2015 05:00 22,9 C -0,5 C 53 % 94 % 1033,0 hPa 0,0 l/m 0,0 km/h (0 Bft) N 0,00 h 0,0 UV-I 0 W/m -1,4 C -0,5 C 0,0 km/h (0 Bft)
28.12.2015 06:00 23,0 C -0,8 C 54 % 94 % 1033,0 hPa 0,0 l/m 0,0 km/h (0 Bft) N 0,00 h 0,0 UV-I 0 W/m -1,7 C -0,8 C 0,0 km/h (0 Bft)
28.12.2015 07:00 23,1 C -1,2 C 55 % 94 % 1032,9 hPa 0,0 l/m 0,0 km/h (0 Bft) N 0,00 h 0,0 UV-I 0 W/m -2,0 C -1,2 C 0,0 km/h (0 Bft)
28.12.2015 08:00 23,3 C -1,4 C 55 % 95 % 1033,1 hPa 0,0 l/m 0,0 km/h (0 Bft) N 0,00 h 0,0 UV-I 22 W/m -2,1 C -1,4 C 0,0 km/h (0 Bft)
28.12.2015 09:00 23,4 C 0,1 C 54 % 96 % 1033,2 hPa 0,2 l/m 0,0 km/h (0 Bft) N 0,00 h 0,0 UV-I 75 W/m -0,5 C 0,1 C 0,0 km/h (0 Bft)
28.12.2015 10:00 23,7 C 2,3 C 53 % 94 % 1033,3 hPa 0,0 l/m 0,0 km/h (0 Bft) N 0,47 h 0,6 UV-I 161 W/m 1,4 C 2,3 C 0,0 km/h (0 Bft)
28.12.2015 11:00 23,5 C 6,0 C 51 % 87 % 1032,5 hPa 0,0 l/m 0,0 km/h (0 Bft) N 1,00 h 0,8 UV-I 232 W/m 4,0 C 6,0 C 0,0 km/h (0 Bft)
28.12.2015 12:00 23,4 C 8,5 C 50 % 81 % 1032,0 hPa 0,0 l/m 0,3 km/h (0 Bft) W-NW 1,00 h 0,8 UV-I 246 W/m 5,4 C 8,5 C 0,8 km/h (0 Bft)
28.12.2015 13:00 23,4 C 10,0 C 50 % 74 % 1031,4 hPa 0,0 l/m 0,2 km/h (0 Bft) W-NW 0,97 h 0,7 UV-I 213 W/m 5,5 C 10,0 C 0,5 km/h (0 Bft)
28.12.2015 14:00 23,5 C 9,1 C 50 % 75 % 1030,8 hPa 0,0 l/m 0,1 km/h (0 Bft) W 0,00 h 0,5 UV-I 84 W/m 4,8 C 9,1 C 0,4 km/h (0 Bft)
28.12.2015 15:00 23,4 C 8,6 C 48 % 76 % 1030,7 hPa 0,0 l/m 0,0 km/h (0 Bft) N 0,00 h 0,0 UV-I 37 W/m 4,6 C 8,6 C 0,0 km/h (0 Bft)
28.12.2015 16:00 23,4 C 6,3 C 47 % 81 % 1030,7 hPa 0,0 l/m 0,0 km/h (0 Bft) N 0,00 h 0,0 UV-I 8 W/m 3,3 C 6,3 C 0,0 km/h (0 Bft)
28.12.2015 17:00 23,4 C 4,0 C 48 % 87 % 1030,8 hPa 0,0 l/m 0,0 km/h (0 Bft) N 0,00 h 0,0 UV-I 0 W/m 2,0 C 4,0 C 0,0 km/h (0 Bft)
28.12.2015 18:00 23,5 C 2,5 C 48 % 89 % 1030,7 hPa 0,0 l/m 0,0 km/h (0 Bft) N 0,00 h 0,0 UV-I 0 W/m 0,9 C 2,5 C 0,0 km/h (0 Bft)
28.12.2015 19:00 23,7 C 1,3 C 49 % 91 % 1030,6 hPa 0,0 l/m 0,0 km/h (0 Bft) N 0,00 h 0,0 UV-I 0 W/m 0,0 C 1,3 C 0,0 km/h (0 Bft)
28.12.2015 20:00 23,6 C 0,5 C 49 % 92 % 1030,6 hPa 0,0 l/m 0,0 km/h (0 Bft) N 0,00 h 0,0 UV-I 0 W/m -0,6 C 0,5 C 0,0 km/h (0 Bft)
28.12.2015 21:00 23,6 C -0,1 C 48 % 93 % 1030,6 hPa 0,0 l/m 0,0 km/h (0 Bft) N 0,00 h 0,0 UV-I 0 W/m -1,1 C -0,1 C 0,0 km/h (0 Bft)
28.12.2015 22:00 23,6 C -0,5 C 49 % 94 % 1030,6 hPa 0,0 l/m 0,0 km/h (0 Bft) N 0,00 h 0,0 UV-I 0 W/m -1,4 C -0,5 C 0,0 km/h (0 Bft)
28.12.2015 23:00 23,5 C -0,9 C 50 % 94 % 1030,3 hPa 0,0 l/m 0,0 km/h (0 Bft) N 0,00 h 0,0 UV-I 0 W/m -1,8 C -0,9 C 0,2 km/h (0 Bft)
29.12.2015 00:00 23,2 C -1,0 C 50 % 94 % 1030,1 hPa 0,0 l/m 0,0 km/h (0 Bft) N 0,00 h 0,0 UV-I 0 W/m -1,8 C -1,0 C 0,1 km/h (0 Bft)
29.12.2015 01:00 23,0 C 0,9 C 51 % 96 % 1029,8 hPa 0,0 l/m 0,0 km/h (0 Bft) N 0,00 h 0,0 UV-I 0 W/m 0,4 C 0,9 C 0,3 km/h (0 Bft)
29.12.2015 02:00 22,9 C 1,3 C 51 % 96 % 1029,7 hPa 0,0 l/m 0,0 km/h (0 Bft) NO 0,00 h 0,0 UV-I 0 W/m 0,7 C 1,3 C 0,4 km/h (0 Bft)
29.12.2015 03:00 22,8 C 1,2 C 51 % 96 % 1029,4 hPa 0,0 l/m 0,0 km/h (0 Bft) O-NO 0,00 h 0,0 UV-I 0 W/m 0,6 C 1,2 C 0,3 km/h (0 Bft)
29.12.2015 04:00 22,8 C 3,9 C 51 % 98 % 1029,0 hPa 0,0 l/m 0,4 km/h (0 Bft) NO 0,00 h 0,0 UV-I 0 W/m 3,6 C 3,9 C 1,8 km/h (1 Bft)
29.12.2015 05:00 22,9 C 5,6 C 52 % 98 % 1028,6 hPa 0,0 l/m 0,8 km/h (0 Bft) O 0,00 h 0,0 UV-I 0 W/m 5,3 C 5,6 C 3,9 km/h (1 Bft)
29.12.2015 06:00 22,9 C 6,2 C 53 % 96 % 1028,8 hPa 0,0 l/m 2,4 km/h (1 Bft) O 0,00 h 0,0 UV-I 0 W/m 5,6 C 6,0 C 7,4 km/h (2 Bft)
29.12.2015 07:00 22,9 C 6,0 C 53 % 95 % 1028,9 hPa 0,0 l/m 0,4 km/h (0 Bft) O 0,00 h 0,0 UV-I 0 W/m 5,2 C 6,0 C 1,8 km/h (1 Bft)
29.12.2015 08:00 22,9 C 6,2 C 53 % 94 % 1029,0 hPa 0,0 l/m 1,4 km/h (1 Bft) O-SO 0,00 h 0,0 UV-I 9 W/m 5,3 C 6,2 C 4,6 km/h (1 Bft)
29.12.2015 09:00 23,2 C 6,3 C 54 % 92 % 1029,0 hPa 0,0 l/m 2,0 km/h (1 Bft) O-SO 0,00 h 0,0 UV-I 44 W/m 5,1 C 6,3 C 6,5 km/h (2 Bft)
29.12.2015 10:00 23,3 C 6,2 C 54 % 89 % 1029,0 hPa 0,0 l/m 1,9 km/h (1 Bft) O 0,03 h 0,6 UV-I 92 W/m 4,4 C 6,0 C 6,1 km/h (2 Bft)
29.12.2015 11:00 23,4 C 6,8 C 54 % 85 % 1028,8 hPa 0,0 l/m 1,7 km/h (1 Bft) O 0,90 h 0,8 UV-I 215 W/m 4,4 C 6,6 C 5,4 km/h (1 Bft)
29.12.2015 12:00 23,6 C 6,6 C 54 % 85 % 1028,6 hPa 0,0 l/m 3,0 km/h (1 Bft) O 0,22 h 0,8 UV-I 127 W/m 4,2 C 6,4 C 7,8 km/h (2 Bft)
29.12.2015 13:00 23,6 C 6,4 C 50 % 85 % 1028,9 hPa 0,0 l/m 1,8 km/h (1 Bft) O 0,02 h 0,5 UV-I 78 W/m 4,0 C 6,2 C 4,9 km/h (1 Bft)
29.12.2015 14:00 23,6 C 5,7 C 49 % 87 % 1029,3 hPa 0,0 l/m 2,0 km/h (1 Bft) O-SO 0,00 h 0,0 UV-I 34 W/m 3,6 C 5,6 C 6,3 km/h (2 Bft)
29.12.2015 15:00 23,3 C 5,1 C 47 % 87 % 1029,8 hPa 0,0 l/m 0,6 km/h (0 Bft) O-SO 0,00 h 0,0 UV-I 14 W/m 3,1 C 5,1 C 2,7 km/h (1 Bft)
29.12.2015 16:00 23,4 C 4,7 C 47 % 87 % 1030,7 hPa 0,0 l/m 0,2 km/h (0 Bft) O 0,00 h 0,0 UV-I 0 W/m 2,7 C 4,7 C 0,7 km/h (0 Bft)
29.12.2015 17:00 23,6 C 4,6 C 46 % 87 % 1031,4 hPa 0,0 l/m 0,0 km/h (0 Bft) N 0,00 h 0,0 UV-I 0 W/m 2,5 C 4,6 C 0,0 km/h (0 Bft)
29.12.2015 18:00 23,6 C 4,4 C 47 % 87 % 1031,7 hPa 0,0 l/m 0,0 km/h (0 Bft) N 0,00 h 0,0 UV-I 0 W/m 2,4 C 4,4 C 0,2 km/h (0 Bft)
29.12.2015 19:00 23,7 C 4,6 C 48 % 87 % 1031,6 hPa 0,0 l/m 0,2 km/h (0 Bft) SO 0,00 h 0,0 UV-I 0 W/m 2,6 C 4,6 C 0,9 km/h (0 Bft)
29.12.2015 20:00 23,7 C 4,6 C 49 % 86 % 1031,9 hPa 0,0 l/m 0,7 km/h (0 Bft) SO 0,00 h 0,0 UV-I 0 W/m 2,4 C 4,6 C 2,7 km/h (1 Bft)
29.12.2015 21:00 23,6 C 4,4 C 49 % 86 % 1032,3 hPa 0,0 l/m 0,4 km/h (0 Bft) SO 0,00 h 0,0 UV-I 0 W/m 2,3 C 4,4 C 1,5 km/h (1 Bft)
29.12.2015 22:00 23,7 C 4,2 C 49 % 86 % 1032,8 hPa 0,0 l/m 0,0 km/h (0 Bft) O-SO 0,00 h 0,0 UV-I 0 W/m 2,2 C 4,2 C 0,3 km/h (0 Bft)
29.12.2015 23:00 23,6 C 3,8 C 48 % 87 % 1032,9 hPa 0,0 l/m 0,3 km/h (0 Bft) SO 0,00 h 0,0 UV-I 0 W/m 1,8 C 3,8 C 0,9 km/h (0 Bft)
30.12.2015 00:00 23,5 C 3,8 C 50 % 86 % 1032,8 hPa 0,0 l/m 0,1 km/h (0 Bft) O-SO 0,00 h 0,0 UV-I 0 W/m 1,6 C 3,8 C 0,5 km/h (0 Bft)
30.12.2015 01:00 23,2 C 3,9 C 51 % 85 % 1032,8 hPa 0,0 l/m 0,2 km/h (0 Bft) O-SO 0,00 h 0,0 UV-I 0 W/m 1,6 C 3,9 C 0,8 km/h (0 Bft)
30.12.2015 02:00 23,1 C 3,8 C 51 % 84 % 1032,8 hPa 0,0 l/m 1,0 km/h (0 Bft) O-SO 0,00 h 0,0 UV-I 0 W/m 1,4 C 3,8 C 3,7 km/h (1 Bft)
30.12.2015 03:00 23,0 C 3,6 C 51 % 85 % 1032,7 hPa 0,0 l/m 0,7 km/h (0 Bft) SO 0,00 h 0,0 UV-I 0 W/m 1,3 C 3,6 C 3,3 km/h (1 Bft)
30.12.2015 04:00 22,9 C 3,3 C 51 % 85 % 1032,7 hPa 0,0 l/m 1,2 km/h (1 Bft) SO 0,00 h 0,0 UV-I 0 W/m 1,0 C 3,3 C 4,1 km/h (1 Bft)
30.12.2015 05:00 23,0 C 3,2 C 52 % 86 % 1032,8 hPa 0,0 l/m 1,1 km/h (1 Bft) SO 0,00 h 0,0 UV-I 0 W/m 1,0 C 3,2 C 4,0 km/h (1 Bft)
30.12.2015 06:00 23,1 C 2,6 C 52 % 87 % 1032,6 hPa 0,0 l/m 3,7 km/h (1 Bft) O 0,00 h 0,0 UV-I 0 W/m 0,6 C 2,3 C 10,6 km/h (2 Bft)
30.12.2015 07:00 23,1 C 1,9 C 53 % 87 % 1032,8 hPa 0,0 l/m 6,0 km/h (2 Bft) O-SO 0,00 h 0,0 UV-I 0 W/m 0,0 C 0,7 C 13,2 km/h (3 Bft)
30.12.2015 08:00 23,4 C 1,7 C 53 % 87 % 1032,8 hPa 0,0 l/m 5,5 km/h (1 Bft) O 0,00 h 0,0 UV-I 10 W/m -0,2 C 0,6 C 11,8 km/h (2 Bft)
30.12.2015 09:00 23,5 C 2,0 C 54 % 86 % 1032,8 hPa 0,0 l/m 6,7 km/h (2 Bft) O-SO 0,00 h 0,0 UV-I 25 W/m -0,2 C 0,4 C 13,6 km/h (3 Bft)
30.12.2015 10:00 23,7 C 2,1 C 54 % 85 % 1032,7 hPa 0,0 l/m 7,7 km/h (2 Bft) O-SO 0,00 h 0,0 UV-I 37 W/m -0,3 C -0,3 C 13,9 km/h (3 Bft)
30.12.2015 11:00 23,7 C 1,7 C 55 % 86 % 1032,5 hPa 0,0 l/m 7,2 km/h (2 Bft) SO 0,00 h 0,0 UV-I 40 W/m -0,4 C -0,4 C 13,1 km/h (3 Bft)
30.12.2015 12:00 23,8 C 1,5 C 55 % 85 % 1031,7 hPa 0,0 l/m 6,2 km/h (2 Bft) O-SO 0,05 h 0,6 UV-I 74 W/m -0,7 C 0,1 C 12,2 km/h (2 Bft)
30.12.2015 13:00 23,8 C 1,9 C 55 % 81 % 1030,9 hPa 0,0 l/m 8,9 km/h (2 Bft) O-SO 0,33 h 0,6 UV-I 124 W/m -1,0 C -0,7 C 16,5 km/h (3 Bft)
30.12.2015 14:00 23,9 C 2,2 C 55 % 80 % 1030,5 hPa 0,0 l/m 5,5 km/h (1 Bft) O-SO 0,05 h 0,5 UV-I 85 W/m -1,0 C 1,1 C 11,2 km/h (2 Bft)
30.12.2015 15:00 24,0 C 1,5 C 55 % 82 % 1030,2 hPa 0,0 l/m 4,9 km/h (1 Bft) O-SO 0,00 h 0,0 UV-I 36 W/m -1,2 C 0,9 C 10,4 km/h (2 Bft)
30.12.2015 16:00 24,1 C 0,8 C 54 % 84 % 1029,9 hPa 0,0 l/m 4,4 km/h (1 Bft) O-SO 0,00 h 0,0 UV-I 8 W/m -1,7 C 0,2 C 10,1 km/h (2 Bft)
30.12.2015 17:00 24,2 C 0,4 C 55 % 85 % 1029,5 hPa 0,0 l/m 6,4 km/h (2 Bft) O 0,00 h 0,0 UV-I 0 W/m -1,9 C -0,9 C 12,2 km/h (2 Bft)
30.12.2015 18:00 24,3 C 0,1 C 56 % 84 % 1029,1 hPa 0,0 l/m 10,1 km/h (2 Bft) O-SO 0,00 h 0,0 UV-I 0 W/m -2,2 C -3,4 C 18,6 km/h (3 Bft)
30.12.2015 19:00 24,3 C -0,5 C 56 % 84 % 1028,8 hPa 0,0 l/m 9,4 km/h (2 Bft) O 0,00 h 0,0 UV-I 0 W/m -2,9 C -3,6 C 18,4 km/h (3 Bft)
30.12.2015 20:00 24,1 C -1,0 C 55 % 84 % 1028,1 hPa 0,0 l/m 7,7 km/h (2 Bft) O 0,00 h 0,0 UV-I 0 W/m -3,4 C -2,9 C 14,5 km/h (3 Bft)
30.12.2015 21:00 24,3 C -1,3 C 56 % 83 % 1027,6 hPa 0,0 l/m 4,6 km/h (1 Bft) O 0,00 h 0,0 UV-I 0 W/m -3,9 C -2,1 C 10,3 km/h (2 Bft)
30.12.2015 22:00 24,3 C -1,6 C 56 % 82 % 1027,4 hPa 0,0 l/m 6,9 km/h (2 Bft) O 0,00 h 0,0 UV-I 0 W/m -4,3 C -3,1 C 13,2 km/h (3 Bft)
30.12.2015 23:00 24,1 C -1,8 C 55 % 79 % 1026,9 hPa 0,0 l/m 7,1 km/h (2 Bft) O-SO 0,00 h 0,0 UV-I 0 W/m -4,9 C -3,4 C 14,2 km/h (3 Bft)
31.12.2015 00:00 23,8 C -2,0 C 56 % 76 % 1026,5 hPa 0,0 l/m 5,1 km/h (1 Bft) O 0,00 h 0,0 UV-I 0 W/m -5,6 C -2,5 C 10,5 km/h (2 Bft)
31.12.2015 01:00 23,6 C -2,2 C 56 % 74 % 1026,2 hPa 0,0 l/m 4,4 km/h (1 Bft) O 0,00 h 0,0 UV-I 0 W/m -6,2 C -2,8 C 9,3 km/h (2 Bft)
31.12.2015 02:00 23,4 C -2,6 C 56 % 73 % 1026,4 hPa 0,0 l/m 1,9 km/h (1 Bft) O-SO 0,00 h 0,0 UV-I 0 W/m -6,7 C -2,6 C 4,3 km/h (1 Bft)
31.12.2015 03:00 23,3 C -2,8 C 56 % 73 % 1026,3 hPa 0,0 l/m 3,2 km/h (1 Bft) O 0,00 h 0,0 UV-I 0 W/m -7,0 C -2,9 C 6,5 km/h (2 Bft)
31.12.2015 04:00 23,2 C -3,2 C 56 % 74 % 1026,2 hPa 0,0 l/m 3,3 km/h (1 Bft) O 0,00 h 0,0 UV-I 0 W/m -7,2 C -3,2 C 6,5 km/h (2 Bft)
31.12.2015 05:00 23,1 C -3,5 C 56 % 73 % 1026,1 hPa 0,0 l/m 5,3 km/h (1 Bft) O 0,00 h 0,0 UV-I 0 W/m -7,6 C -3,8 C 10,2 km/h (2 Bft)
31.12.2015 06:00 23,1 C -3,7 C 56 % 72 % 1026,1 hPa 0,0 l/m 5,9 km/h (2 Bft) O-NO 0,00 h 0,0 UV-I 0 W/m -8,0 C -4,4 C 11,0 km/h (2 Bft)
31.12.2015 07:00 23,2 C -4,1 C 57 % 72 % 1026,7 hPa 0,0 l/m 5,8 km/h (2 Bft) O 0,00 h 0,0 UV-I 0 W/m -8,3 C -4,7 C 10,6 km/h (2 Bft)
31.12.2015 08:00 23,3 C -4,0 C 58 % 72 % 1027,0 hPa 0,0 l/m 4,5 km/h (1 Bft) O-NO 0,00 h 0,0 UV-I 27 W/m -8,2 C -4,4 C 9,4 km/h (2 Bft)
31.12.2015 09:00 23,4 C -2,9 C 58 % 69 % 1027,3 hPa 0,0 l/m 2,3 km/h (1 Bft) O-SO 0,00 h 0,0 UV-I 106 W/m -7,7 C -3,0 C 5,7 km/h (1 Bft)
31.12.2015 10:00 23,5 C -1,6 C 57 % 68 % 1027,9 hPa 0,0 l/m 1,3 km/h (1 Bft) O 0,98 h 0,6 UV-I 192 W/m -6,9 C -1,7 C 3,1 km/h (1 Bft)
31.12.2015 11:00 23,5 C -0,9 C 55 % 66 % 1027,7 hPa 0,0 l/m 0,4 km/h (0 Bft) O-NO 0,80 h 0,7 UV-I 193 W/m -6,4 C -0,9 C 0,9 km/h (0 Bft)
31.12.2015 12:00 23,4 C -0,5 C 52 % 65 % 1027,5 hPa 0,0 l/m 0,0 km/h (0 Bft) N 0,05 h 0,6 UV-I 91 W/m -6,3 C -0,5 C 0,0 km/h (0 Bft)
31.12.2015 13:00 23,3 C -0,3 C 49 % 66 % 1027,2 hPa 0,0 l/m 0,0 km/h (0 Bft) N 0,00 h 0,5 UV-I 64 W/m -5,9 C -0,3 C 0,0 km/h (0 Bft)
31.12.2015 14:00 23,5 C -0,1 C 50 % 67 % 1027,1 hPa 0,0 l/m 0,0 km/h (0 Bft) N 0,00 h 0,0 UV-I 31 W/m -5,4 C -0,1 C 0,0 km/h (0 Bft)
31.12.2015 15:00 23,5 C -0,4 C 48 % 77 % 1027,5 hPa 0,2 l/m 1,0 km/h (0 Bft) O-NO 0,00 h 0,0 UV-I 9 W/m -4,0 C -0,4 C 2,8 km/h (1 Bft)
31.12.2015 16:00 23,7 C -1,1 C 50 % 84 % 1028,2 hPa 0,0 l/m 0,2 km/h (0 Bft) O-NO 0,00 h 0,0 UV-I 0 W/m -3,5 C -1,1 C 0,8 km/h (0 Bft)
31.12.2015 17:00 24,0 C -1,5 C 51 % 89 % 1028,5 hPa 0,6 l/m 0,0 km/h (0 Bft) N 0,00 h 0,0 UV-I 0 W/m -3,1 C -1,5 C 0,0 km/h (0 Bft)
31.12.2015 18:00 24,1 C -1,9 C 52 % 91 % 1028,6 hPa 0,2 l/m 0,1 km/h (0 Bft) O-NO 0,00 h 0,0 UV-I 0 W/m -3,1 C -1,9 C 0,6 km/h (0 Bft)
31.12.2015 19:00 24,1 C -2,0 C 52 % 92 % 1028,5 hPa 0,2 l/m 0,0 km/h (0 Bft) N 0,00 h 0,0 UV-I 0 W/m -3,2 C -2,0 C 0,0 km/h (0 Bft)
31.12.2015 20:00 23,6 C -1,9 C 49 % 92 % 1028,4 hPa 0,0 l/m 0,0 km/h (0 Bft) N 0,00 h 0,0 UV-I 0 W/m -3,0 C -1,9 C 0,0 km/h (0 Bft)
31.12.2015 21:00 23,7 C -1,8 C 50 % 93 % 1028,0 hPa 0,0 l/m 0,0 km/h (0 Bft) N 0,00 h 0,0 UV-I 0 W/m -2,8 C -1,8 C 0,0 km/h (0 Bft)
31.12.2015 22:00 23,8 C -1,7 C 51 % 93 % 1028,2 hPa 0,0 l/m 0,0 km/h (0 Bft) N 0,00 h 0,0 UV-I 0 W/m -2,7 C -1,7 C 0,0 km/h (0 Bft)
31.12.2015 23:00 23,8 C -1,4 C 52 % 94 % 1028,4 hPa 0,2 l/m 0,0 km/h (0 Bft) N 0,00 h 0,0 UV-I 0 W/m -2,2 C -1,4 C 0,0 km/h (0 Bft)
01.01.2016 00:00 23,6 C -1,3 C 51 % 94 % 1028,3 hPa 0,0 l/m 0,0 km/h (0 Bft) N 0,00 h 0,0 UV-I 0 W/m -2,1 C -1,3 C 0,0 km/h (0 Bft)
01.01.2016 01:00 23,6 C -1,3 C 53 % 95 % 1027,9 hPa 0,0 l/m 0,0 km/h (0 Bft) O 0,00 h 0,0 UV-I 0 W/m -2,0 C -1,3 C 0,3 km/h (0 Bft)
01.01.2016 02:00 23,2 C -1,2 C 53 % 95 % 1028,1 hPa 0,0 l/m 0,0 km/h (0 Bft) N 0,00 h 0,0 UV-I 0 W/m -1,9 C -1,2 C 0,0 km/h (0 Bft)
01.01.2016 03:00 23,1 C -1,1 C 53 % 95 % 1028,3 hPa 0,0 l/m 0,0 km/h (0 Bft) N 0,00 h 0,0 UV-I 0 W/m -1,7 C -1,1 C 0,0 km/h (0 Bft)
01.01.2016 04:00 23,3 C -0,9 C 53 % 96 % 1028,3 hPa 0,0 l/m 0,0 km/h (0 Bft) N 0,00 h 0,0 UV-I 0 W/m -1,5 C -0,9 C 0,0 km/h (0 Bft)
01.01.2016 05:00 23,2 C -0,8 C 54 % 96 % 1028,2 hPa 0,0 l/m 0,0 km/h (0 Bft) N 0,00 h 0,0 UV-I 0 W/m -1,4 C -0,8 C 0,0 km/h (0 Bft)
01.01.2016 06:00 23,2 C -0,7 C 54 % 97 % 1028,2 hPa 0,0 l/m 0,0 km/h (0 Bft) N 0,00 h 0,0 UV-I 0 W/m -1,2 C -0,7 C 0,0 km/h (0 Bft)
01.01.2016 07:00 23,1 C -0,6 C 54 % 97 % 1028,5 hPa 0,0 l/m 0,0 km/h (0 Bft) N 0,00 h 0,0 UV-I 0 W/m -1,0 C -0,6 C 0,0 km/h (0 Bft)
01.01.2016 08:00 23,2 C -0,4 C 54 % 97 % 1028,6 hPa 0,0 l/m 0,0 km/h (0 Bft) N 0,00 h 0,0 UV-I 10 W/m -0,8 C -0,4 C 0,0 km/h (0 Bft)
01.01.2016 09:00 23,5 C -0,2 C 54 % 97 % 1028,7 hPa 0,0 l/m 0,0 km/h (0 Bft) N 0,00 h 0,0 UV-I 25 W/m -0,6 C -0,2 C 0,0 km/h (0 Bft)
01.01.2016 10:00 23,7 C 0,2 C 54 % 97 % 1029,2 hPa 0,0 l/m 0,0 km/h (0 Bft) N 0,00 h 0,0 UV-I 55 W/m -0,2 C 0,2 C 0,0 km/h (0 Bft)
01.01.2016 11:00 23,6 C 0,6 C 53 % 97 % 1028,9 hPa 0,0 l/m 0,0 km/h (0 Bft) N 0,00 h 0,0 UV-I 49 W/m 0,2 C 0,6 C 0,2 km/h (0 Bft)
01.01.2016 12:00 23,7 C 0,7 C 53 % 96 % 1028,3 hPa 0,0 l/m 0,0 km/h (0 Bft) N 0,00 h 0,0 UV-I 60 W/m 0,2 C 0,7 C 0,2 km/h (0 Bft)
01.01.2016 13:00 23,7 C 1,0 C 54 % 96 % 1027,7 hPa 0,0 l/m 0,0 km/h (0 Bft) N 0,00 h 0,0 UV-I 60 W/m 0,3 C 1,0 C 0,1 km/h (0 Bft)
01.01.2016 14:00 23,7 C 1,2 C 53 % 92 % 1027,4 hPa 0,0 l/m 0,0 km/h (0 Bft) S 0,00 h 0,0 UV-I 44 W/m 0,1 C 1,2 C 0,7 km/h (0 Bft)
01.01.2016 15:00 23,6 C 0,9 C 49 % 92 % 1027,6 hPa 0,0 l/m 0,5 km/h (0 Bft) S 0,00 h 0,0 UV-I 7 W/m -0,3 C 0,9 C 1,3 km/h (1 Bft)
01.01.2016 16:00 23,9 C 0,5 C 51 % 93 % 1027,5 hPa 0,0 l/m 0,1 km/h (0 Bft) S 0,00 h 0,0 UV-I 0 W/m -0,5 C 0,5 C 0,7 km/h (0 Bft)
01.01.2016 17:00 24,0 C 0,2 C 53 % 94 % 1027,3 hPa 0,0 l/m 0,1 km/h (0 Bft) S 0,00 h 0,0 UV-I 0 W/m -0,7 C 0,2 C 0,4 km/h (0 Bft)
01.01.2016 18:00 24,0 C -0,2 C 53 % 94 % 1027,0 hPa 0,0 l/m 0,1 km/h (0 Bft) O-SO 0,00 h 0,0 UV-I 0 W/m -1,0 C -0,2 C 0,4 km/h (0 Bft)
01.01.2016 19:00 23,9 C -0,4 C 53 % 94 % 1026,4 hPa 0,0 l/m 0,2 km/h (0 Bft) N-NO 0,00 h 0,0 UV-I 0 W/m -1,3 C -0,4 C 0,7 km/h (0 Bft)
01.01.2016 20:00 23,9 C -0,7 C 52 % 95 % 1025,8 hPa 0,0 l/m 0,7 km/h (0 Bft) N-NO 0,00 h 0,0 UV-I 0 W/m -1,4 C -0,7 C 1,9 km/h (1 Bft)
01.01.2016 21:00 23,9 C -1,2 C 52 % 94 % 1025,2 hPa 0,0 l/m 0,9 km/h (0 Bft) NO 0,00 h 0,0 UV-I 0 W/m -2,1 C -1,2 C 3,4 km/h (1 Bft)
01.01.2016 22:00 23,9 C -1,4 C 54 % 94 % 1024,6 hPa 0,0 l/m 0,9 km/h (0 Bft) SO 0,00 h 0,0 UV-I 0 W/m -2,2 C -1,4 C 2,2 km/h (1 Bft)
01.01.2016 23:00 23,8 C -1,2 C 53 % 94 % 1023,8 hPa 0,0 l/m 2,4 km/h (1 Bft) O 0,00 h 0,0 UV-I 0 W/m -2,1 C -1,4 C 6,3 km/h (2 Bft)
02.01.2016 00:00 23,5 C -1,2 C 53 % 94 % 1023,1 hPa 0,0 l/m 0,9 km/h (0 Bft) O 0,00 h 0,0 UV-I 0 W/m -2,0 C -1,4 C 2,4 km/h (1 Bft)
02.01.2016 01:00 23,3 C -1,2 C 53 % 94 % 1022,6 hPa 0,0 l/m 1,1 km/h (1 Bft) O 0,00 h 0,0 UV-I 0 W/m -2,0 C -1,2 C 3,7 km/h (1 Bft)
02.01.2016 02:00 23,2 C -1,0 C 53 % 95 % 1022,1 hPa 0,0 l/m 2,7 km/h (1 Bft) O 0,00 h 0,0 UV-I 0 W/m -1,7 C -1,3 C 7,2 km/h (2 Bft)
02.01.2016 03:00 23,1 C -0,9 C 53 % 95 % 1021,7 hPa 0,0 l/m 0,1 km/h (0 Bft) NO 0,00 h 0,0 UV-I 0 W/m -1,6 C -0,9 C 0,7 km/h (0 Bft)
02.01.2016 04:00 23,0 C -0,7 C 53 % 95 % 1021,3 hPa 0,0 l/m 0,3 km/h (0 Bft) NO 0,00 h 0,0 UV-I 0 W/m -1,5 C -0,7 C 1,4 km/h (1 Bft)
02.01.2016 05:00 22,9 C -0,7 C 53 % 94 % 1020,8 hPa 0,0 l/m 2,5 km/h (1 Bft) O-NO 0,00 h 0,0 UV-I 0 W/m -1,6 C -0,8 C 6,5 km/h (2 Bft)
02.01.2016 06:00 22,9 C -0,9 C 53 % 93 % 1020,3 hPa 0,0 l/m 4,5 km/h (1 Bft) O 0,00 h 0,0 UV-I 0 W/m -1,8 C -1,2 C 10,2 km/h (2 Bft)
02.01.2016 07:00 22,9 C -0,9 C 54 % 93 % 1019,8 hPa 0,0 l/m 3,6 km/h (1 Bft) O 0,00 h 0,0 UV-I 0 W/m -1,9 C -1,0 C 8,6 km/h (2 Bft)
02.01.2016 08:00 23,0 C -1,0 C 54 % 93 % 1020,0 hPa 0,0 l/m 0,7 km/h (0 Bft) O-SO 0,00 h 0,0 UV-I 14 W/m -2,0 C -1,0 C 3,0 km/h (1 Bft)
02.01.2016 09:00 23,3 C -0,8 C 54 % 93 % 1019,7 hPa 0,0 l/m 3,7 km/h (1 Bft) O 0,00 h 0,0 UV-I 40 W/m -1,9 C -1,0 C 8,5 km/h (2 Bft)
02.01.2016 10:00 23,5 C -0,6 C 55 % 91 % 1019,2 hPa 0,0 l/m 6,5 km/h (2 Bft) O 0,00 h 0,0 UV-I 60 W/m -1,8 C -1,8 C 11,4 km/h (2 Bft)
02.01.2016 11:00 23,5 C -0,4 C 53 % 91 % 1019,0 hPa 0,0 l/m 4,2 km/h (1 Bft) O-SO 0,00 h 0,0 UV-I 41 W/m -1,7 C -0,8 C 8,8 km/h (2 Bft)
02.01.2016 12:00 23,4 C -0,6 C 53 % 90 % 1018,5 hPa 0,0 l/m 6,4 km/h (2 Bft) O-SO 0,00 h 0,4 UV-I 56 W/m -2,0 C -1,8 C 13,0 km/h (3 Bft)
02.01.2016 13:00 23,4 C -0,9 C 55 % 91 % 1017,9 hPa 0,0 l/m 7,2 km/h (2 Bft) O 0,00 h 0,0 UV-I 45 W/m -2,1 C -2,7 C 14,4 km/h (3 Bft)
02.01.2016 14:00 23,5 C -0,5 C 54 % 89 % 1017,4 hPa 0,0 l/m 6,5 km/h (2 Bft) O 0,00 h 0,0 UV-I 49 W/m -2,1 C -2,1 C 12,6 km/h (3 Bft)
02.01.2016 15:00 23,5 C -0,2 C 52 % 89 % 1017,2 hPa 0,0 l/m 3,4 km/h (1 Bft) O-SO 0,00 h 0,0 UV-I 18 W/m -1,8 C -0,5 C 7,9 km/h (2 Bft)
02.01.2016 16:00 23,9 C -0,0 C 53 % 89 % 1017,2 hPa 0,0 l/m 2,7 km/h (1 Bft) O-SO 0,00 h 0,0 UV-I 0 W/m -1,6 C -0,2 C 7,1 km/h (2 Bft)
02.01.2016 17:00 23,9 C 0,1 C 50 % 89 % 1016,7 hPa 0,0 l/m 7,4 km/h (2 Bft) O 0,00 h 0,0 UV-I 0 W/m -1,6 C -1,6 C 14,7 km/h (3 Bft)
02.01.2016 18:00 24,0 C 0,1 C 53 % 89 % 1016,3 hPa 0,0 l/m 8,3 km/h (2 Bft) O-SO 0,00 h 0,0 UV-I 0 W/m -1,6 C -2,3 C 15,5 km/h (3 Bft)
02.01.2016 19:00 23,8 C 0,1 C 54 % 88 % 1016,4 hPa 0,0 l/m 5,9 km/h (2 Bft) O-SO 0,00 h 0,0 UV-I 0 W/m -1,7 C -0,8 C 12,2 km/h (2 Bft)
02.01.2016 20:00 23,7 C -0,1 C 54 % 88 % 1016,5 hPa 0,0 l/m 3,7 km/h (1 Bft) O-SO 0,00 h 0,0 UV-I 0 W/m -1,9 C -0,3 C 8,6 km/h (2 Bft)
02.01.2016 21:00 23,6 C -0,5 C 55 % 87 % 1016,6 hPa 0,0 l/m 6,1 km/h (2 Bft) O-SO 0,00 h 0,0 UV-I 0 W/m -2,4 C -1,5 C 11,6 km/h (2 Bft)
02.01.2016 22:00 23,6 C -0,9 C 53 % 88 % 1016,8 hPa 0,0 l/m 5,3 km/h (1 Bft) O-SO 0,00 h 0,0 UV-I 0 W/m -2,6 C -1,8 C 10,3 km/h (2 Bft)
02.01.2016 23:00 23,7 C -1,5 C 54 % 89 % 1016,6 hPa 0,0 l/m 6,2 km/h (2 Bft) O-SO 0,00 h 0,0 UV-I 0 W/m -3,1 C -2,8 C 12,6 km/h (3 Bft)
03.01.2016 00:00 23,6 C -1,8 C 55 % 89 % 1016,2 hPa 0,0 l/m 4,6 km/h (1 Bft) O-SO 0,00 h 0,0 UV-I 0 W/m -3,3 C -2,0 C 10,3 km/h (2 Bft)
03.01.2016 01:00 23,4 C -2,1 C 55 % 90 % 1015,9 hPa 0,0 l/m 6,2 km/h (2 Bft) O-SO 0,00 h 0,0 UV-I 0 W/m -3,5 C -3,2 C 13,6 km/h (3 Bft)
03.01.2016 02:00 23,2 C -2,3 C 55 % 90 % 1015,8 hPa 0,0 l/m 6,9 km/h (2 Bft) O-SO 0,00 h 0,0 UV-I 0 W/m -3,7 C -3,9 C 13,8 km/h (3 Bft)
03.01.2016 03:00 23,0 C -2,6 C 55 % 89 % 1015,7 hPa 0,0 l/m 5,9 km/h (2 Bft) O 0,00 h 0,0 UV-I 0 W/m -4,1 C -3,4 C 12,1 km/h (2 Bft)
03.01.2016 04:00 23,0 C -2,7 C 55 % 89 % 1015,6 hPa 0,0 l/m 5,4 km/h (1 Bft) O-SO 0,00 h 0,0 UV-I 0 W/m -4,2 C -3,5 C 8,8 km/h (2 Bft)
03.01.2016 05:00 22,9 C -3,0 C 55 % 91 % 1015,7 hPa 0,0 l/m 5,5 km/h (1 Bft) O-SO 0,00 h 0,0 UV-I 0 W/m -4,3 C -3,6 C 11,2 km/h (2 Bft)
03.01.2016 06:00 22,8 C -3,5 C 55 % 93 % 1015,6 hPa 0,2 l/m 3,9 km/h (1 Bft) O-SO 0,00 h 0,0 UV-I 0 W/m -4,5 C -3,6 C 8,8 km/h (2 Bft)
03.01.2016 07:00 22,8 C -3,7 C 55 % 92 % 1015,4 hPa 0,0 l/m 3,9 km/h (1 Bft) O-SO 0,00 h 0,0 UV-I 0 W/m -4,9 C -3,9 C 8,4 km/h (2 Bft)
03.01.2016 08:00 23,1 C -4,0 C 56 % 90 % 1015,3 hPa 0,0 l/m 3,4 km/h (1 Bft) O-SO 0,00 h 0,0 UV-I 14 W/m -5,3 C -4,2 C 7,7 km/h (2 Bft)
03.01.2016 09:00 23,2 C -4,0 C 56 % 89 % 1015,1 hPa 0,0 l/m 3,3 km/h (1 Bft) O-SO 0,00 h 0,0 UV-I 56 W/m -5,5 C -4,2 C 7,6 km/h (2 Bft)
03.01.2016 10:00 23,3 C -3,5 C 58 % 88 % 1014,9 hPa 0,0 l/m 3,9 km/h (1 Bft) O-SO 0,07 h 0,6 UV-I 130 W/m -5,3 C -3,8 C 8,0 km/h (2 Bft)
03.01.2016 11:00 23,4 C -3,4 C 58 % 85 % 1014,3 hPa 0,2 l/m 5,3 km/h (1 Bft) O-SO 0,00 h 0,6 UV-I 98 W/m -5,5 C -4,2 C 10,3 km/h (2 Bft)
03.01.2016 12:00 23,5 C -3,2 C 55 % 84 % 1013,0 hPa 0,0 l/m 4,9 km/h (1 Bft) O 0,42 h 0,7 UV-I 138 W/m -5,5 C -4,0 C 10,3 km/h (2 Bft)
03.01.2016 13:00 23,3 C -3,3 C 53 % 84 % 1012,4 hPa 0,0 l/m 4,8 km/h (1 Bft) O-SO 0,28 h 0,6 UV-I 138 W/m -5,6 C -3,9 C 10,1 km/h (2 Bft)
03.01.2016 14:00 23,4 C -3,4 C 55 % 86 % 1011,5 hPa 0,0 l/m 6,4 km/h (2 Bft) O-SO 0,00 h 0,5 UV-I 74 W/m -5,4 C -4,6 C 11,0 km/h (2 Bft)
03.01.2016 15:00 23,3 C -4,0 C 51 % 87 % 1011,1 hPa 0,0 l/m 5,7 km/h (1 Bft) O-SO 0,00 h 0,0 UV-I 24 W/m -5,8 C -4,7 C 10,8 km/h (2 Bft)
03.01.2016 16:00 23,6 C -4,4 C 52 % 89 % 1010,6 hPa 0,0 l/m 3,8 km/h (1 Bft) O-SO 0,00 h 0,0 UV-I 0 W/m -6,0 C -4,6 C 7,9 km/h (2 Bft)
03.01.2016 17:00 23,4 C -4,8 C 52 % 90 % 1010,0 hPa 0,0 l/m 5,2 km/h (1 Bft) O 0,00 h 0,0 UV-I 0 W/m -6,3 C -5,2 C 10,1 km/h (2 Bft)
03.01.2016 18:00 23,3 C -4,9 C 49 % 90 % 1009,0 hPa 0,0 l/m 5,1 km/h (1 Bft) O-NO 0,00 h 0,0 UV-I 0 W/m -6,3 C -5,3 C 9,6 km/h (2 Bft)
03.01.2016 19:00 23,5 C -5,1 C 52 % 90 % 1007,9 hPa 0,0 l/m 5,3 km/h (1 Bft) O 0,00 h 0,0 UV-I 0 W/m -6,5 C -5,9 C 10,3 km/h (2 Bft)
03.01.2016 20:00 23,4 C -5,2 C 52 % 89 % 1006,8 hPa 0,0 l/m 7,1 km/h (2 Bft) O 0,00 h 0,0 UV-I 0 W/m -6,7 C -6,6 C 13,0 km/h (3 Bft)
03.01.2016 21:00 23,6 C -5,3 C 53 % 89 % 1005,9 hPa 0,0 l/m 5,7 km/h (1 Bft) O 0,00 h 0,0 UV-I 0 W/m -6,8 C -6,0 C 10,6 km/h (2 Bft)
03.01.2016 22:00 23,3 C -5,6 C 51 % 89 % 1004,6 hPa 0,0 l/m 6,2 km/h (2 Bft) O 0,00 h 0,0 UV-I 0 W/m -7,1 C -6,5 C 11,7 km/h (2 Bft)
03.01.2016 23:00 23,4 C -5,8 C 53 % 90 % 1003,3 hPa 0,0 l/m 6,6 km/h (2 Bft) O 0,00 h 0,0 UV-I 0 W/m -7,3 C -7,3 C 12,9 km/h (3 Bft)
Min-Datum _ 29.12.15 03.01.16 03.01.16 31.12.15 03.01.16 - 28.12.15 - - - - 31.12.15 03.01.16 28.12.15
_ Min-Zeit 02:45 23:37 18:23 12:25 23:40 - 00:00 - - - - 08:07 23:28 00:00
Minimum _ 22,8 C -6,0 C 39 % 63 % 1002,9 hPa - 0,0 km/h (0 Bft) - - - - -8,5 C -12,5 C 0,0 km/h (0 Bft)
Max-Datum _ 30.12.15 28.12.15 03.01.16 29.12.15 28.12.15 31.12.15 30.12.15 - 31.12.15 29.12.15 03.01.16 28.12.15 28.12.15 30.12.15
_ Max-Zeit 19:21 13:26 12:02 04:08 10:19 17:03 18:27 - 10:27 11:31 12:32 13:22 13:26 13:13
Maximum _ 24,4 C 10,4 C 59 % 98 % 1033,4 hPa 0,6 l/m 19,3 km/h
O-SO (3 Bft)
- 0,08 h 0,9 UV-I 316 W/m 6,3 C 10,4 C 33,8 km/h
O-SO (5 Bft)
Durchschnitt _ 23,5 C 0,3 C 53 % 88 % 1025,6 hPa #2,0 l/m 2,5 km/h (1 Bft) O-SO #7:38 h 0,6 UV-I 72 W/m -1,5 C -0,1 C 5,3 km/h (1 Bft)